createdAt,value
2022-12-20T00:02:40.032Z,1.43
2022-12-20T00:07:45.967Z,1.89
2022-12-20T00:12:50.539Z,2.15
2022-12-20T00:17:56.363Z,1.82
2022-12-20T00:23:00.742Z,1.94
2022-12-20T00:28:05.149Z,1.40
2022-12-20T00:33:10.909Z,2.13
2022-12-20T00:38:14.948Z,1.91
2022-12-20T00:43:19.139Z,1.77
2022-12-20T00:48:26.176Z,2.17
2022-12-20T00:53:32.624Z,2.11
2022-12-20T00:58:38.713Z,2.48
2022-12-20T01:03:46.731Z,2.14
2022-12-20T01:08:51.087Z,2.13
2022-12-20T01:13:58.763Z,1.37
2022-12-20T01:19:08.151Z,2.17
2022-12-20T01:24:12.714Z,1.67
2022-12-20T01:29:17.002Z,1.79
2022-12-20T01:34:23.651Z,1.92
2022-12-20T01:39:29.249Z,1.70
2022-12-20T01:44:56.893Z,1.50
2022-12-20T01:50:04.387Z,2.19
2022-12-20T01:55:12.681Z,2.63
2022-12-20T02:00:17.683Z,2.52
2022-12-20T02:05:25.137Z,2.29
2022-12-20T02:10:42.473Z,2.12
2022-12-20T02:15:53.635Z,1.94
2022-12-20T02:21:23.511Z,1.56
2022-12-20T02:26:51.451Z,1.14
2022-12-20T02:32:06.293Z,1.90
2022-12-20T02:37:11.587Z,1.72
2022-12-20T02:42:19.892Z,1.33
2022-12-20T02:47:33.593Z,1.63
2022-12-20T02:52:42.746Z,2.01
2022-12-20T02:57:59.753Z,1.30
2022-12-20T03:03:26.258Z,1.34
2022-12-20T03:08:30.899Z,1.83
2022-12-20T03:13:37.275Z,1.68
2022-12-20T03:18:46.782Z,1.42
2022-12-20T03:23:51.724Z,1.64
2022-12-20T03:28:57.008Z,1.23
2022-12-20T03:34:06.284Z,1.40
2022-12-20T03:39:11.750Z,0.95
2022-12-20T03:44:18.197Z,1.23
2022-12-20T03:49:24.115Z,1.35
2022-12-20T03:54:30.337Z,1.19
2022-12-20T04:00:03.751Z,0.79
2022-12-20T04:05:22.960Z,0.94
2022-12-20T04:10:28.706Z,0.82
2022-12-20T04:15:33.445Z,0.74
2022-12-20T04:20:39.366Z,1.10
2022-12-20T04:25:55.205Z,1.02
2022-12-20T04:31:04.095Z,0.82
2022-12-20T04:36:18.220Z,0.83
2022-12-20T04:41:27.765Z,1.10
2022-12-20T04:46:38.435Z,1.49
2022-12-20T04:51:48.380Z,1.31
2022-12-20T04:56:55.347Z,1.57
2022-12-20T05:02:01.318Z,1.09
2022-12-20T05:07:37.505Z,1.30
2022-12-20T05:12:41.866Z,1.48
2022-12-20T05:17:54.494Z,1.64
2022-12-20T05:23:18.019Z,1.28
2022-12-20T05:28:26.368Z,1.62
2022-12-20T05:33:46.768Z,1.68
2022-12-20T05:39:01.904Z,1.85
2022-12-20T05:44:10.474Z,1.44
2022-12-20T05:49:20.303Z,1.94
2022-12-20T05:54:26.487Z,1.29
2022-12-20T05:59:38.103Z,2.26
2022-12-20T06:04:48.827Z,1.99
2022-12-20T06:10:05.577Z,1.93
2022-12-20T06:15:40.191Z,2.43
2022-12-20T06:20:52.673Z,2.51
2022-12-20T06:26:04.598Z,1.98
2022-12-20T06:31:12.728Z,1.98
2022-12-20T06:36:23.943Z,2.12
2022-12-20T06:41:30.515Z,2.18
2022-12-20T06:46:35.556Z,2.12
2022-12-20T06:51:40.146Z,2.08
2022-12-20T06:56:47.127Z,2.00
2022-12-20T07:01:51.763Z,2.35
2022-12-20T07:06:57.257Z,2.47
2022-12-20T07:12:02.974Z,2.55
2022-12-20T07:17:07.688Z,2.19
2022-12-20T07:22:13.045Z,2.52
2022-12-20T07:27:18.785Z,3.01
2022-12-20T07:32:22.924Z,2.68
2022-12-20T07:37:30.195Z,2.87
2022-12-20T07:42:39.177Z,2.79
2022-12-20T07:47:45.774Z,2.96
2022-12-20T07:52:52.165Z,2.80
2022-12-20T07:58:03.203Z,2.83
2022-12-20T08:03:13.649Z,3.10
2022-12-20T08:08:19.646Z,3.09
2022-12-20T08:13:25.102Z,3.43
2022-12-20T08:18:29.367Z,3.05
2022-12-20T08:23:34.062Z,3.24
2022-12-20T08:28:39.620Z,3.21
2022-12-20T08:33:43.906Z,3.24
2022-12-20T08:38:48.157Z,3.50
2022-12-20T08:43:54.254Z,3.03
2022-12-20T08:48:58.405Z,3.48
2022-12-20T08:54:03.322Z,3.40
2022-12-20T08:59:09.064Z,3.21
2022-12-20T09:04:14.837Z,3.32
2022-12-20T09:09:18.798Z,3.91
2022-12-20T09:14:24.852Z,3.77
2022-12-20T09:19:29.078Z,3.80
2022-12-20T09:24:33.825Z,4.06
2022-12-20T09:29:40.071Z,3.65
2022-12-20T09:34:44.805Z,3.76
2022-12-20T09:39:51.498Z,3.53
2022-12-20T09:45:03.828Z,4.16
2022-12-20T09:50:16.318Z,3.65
2022-12-20T09:55:28.523Z,3.61
2022-12-20T10:00:42.396Z,3.81
2022-12-20T10:05:52.865Z,4.01
2022-12-20T10:11:00.897Z,4.00
2022-12-20T10:16:21.796Z,4.29
2022-12-20T10:21:32.089Z,4.20
2022-12-20T10:26:36.943Z,4.15
2022-12-20T10:31:43.718Z,4.20
2022-12-20T10:36:52.945Z,3.79
2022-12-20T10:41:58.050Z,4.07
2022-12-20T10:47:04.113Z,4.24
2022-12-20T10:52:14.606Z,4.13
2022-12-20T10:57:23.185Z,4.14
2022-12-20T11:02:40.261Z,4.82
2022-12-20T11:08:33.773Z,4.52
2022-12-20T11:13:26.343Z,4.89
2022-12-20T11:18:41.732Z,4.44
2022-12-20T11:23:52.149Z,4.43
2022-12-20T11:29:23.420Z,4.85
2022-12-20T11:34:41.069Z,4.57
2022-12-20T11:40:01.229Z,4.52
2022-12-20T11:45:16.848Z,4.13
2022-12-20T11:50:44.313Z,4.84
2022-12-20T11:55:55.028Z,4.70
2022-12-20T12:01:05.073Z,4.34
2022-12-20T12:06:17.703Z,4.37
2022-12-20T12:17:00.207Z,4.03
2022-12-20T12:22:12.391Z,4.25
2022-12-20T12:27:25.086Z,4.00
2022-12-20T12:32:37.032Z,4.23
2022-12-20T12:38:05.181Z,4.01
2022-12-20T12:43:43.129Z,4.37
2022-12-20T12:48:55.805Z,4.08
2022-12-20T12:54:18.882Z,4.12
2022-12-20T12:59:46.224Z,4.00
2022-12-20T13:05:00.121Z,4.16
2022-12-20T13:11:00.117Z,3.52
2022-12-20T13:17:02.803Z,3.68
2022-12-20T13:21:58.229Z,3.73
2022-12-20T13:27:05.016Z,3.71
2022-12-20T13:32:42.396Z,3.70
2022-12-20T13:37:55.418Z,4.26
2022-12-20T13:43:07.352Z,4.29
2022-12-20T13:48:18.135Z,3.90
2022-12-20T13:53:24.351Z,4.20
2022-12-20T13:58:34.891Z,3.95
2022-12-20T14:03:43.562Z,3.90
2022-12-20T14:08:52.160Z,3.83
2022-12-20T14:13:59.668Z,3.95
2022-12-20T14:19:05.545Z,4.17
2022-12-20T14:24:15.958Z,4.49
2022-12-20T14:29:27.175Z,3.46
2022-12-20T14:34:41.317Z,3.90
2022-12-20T14:39:57.302Z,3.75
2022-12-20T14:45:18.485Z,4.09
2022-12-20T14:50:29.274Z,3.69
2022-12-20T14:55:37.725Z,3.47
2022-12-20T15:00:58.051Z,3.40
2022-12-20T15:06:02.554Z,3.05
2022-12-20T15:11:18.119Z,2.83
2022-12-20T15:16:30.614Z,3.04
2022-12-20T15:21:40.600Z,3.25
2022-12-20T15:26:46.443Z,3.69
2022-12-20T15:31:53.964Z,3.38
2022-12-20T15:37:00.275Z,3.09
2022-12-20T15:42:06.825Z,3.08
2022-12-20T15:47:14.383Z,2.95
2022-12-20T15:52:21.874Z,3.03
2022-12-20T15:57:26.559Z,3.48
2022-12-20T16:02:34.067Z,3.91
2022-12-20T16:07:39.498Z,4.03
2022-12-20T16:12:44.132Z,3.25
2022-12-20T16:17:50.509Z,4.17
2022-12-20T16:22:55.461Z,3.28
2022-12-20T16:28:00.407Z,3.89
2022-12-20T16:33:06.780Z,3.66
2022-12-20T16:38:11.798Z,3.41
2022-12-20T16:43:18.477Z,3.28
2022-12-20T16:48:24.528Z,4.04
2022-12-20T16:53:34.561Z,3.20
2022-12-20T16:59:18.607Z,3.35
2022-12-20T17:04:21.453Z,3.73
2022-12-20T17:09:26.104Z,3.87
2022-12-20T17:14:32.566Z,4.30
2022-12-20T17:19:55.118Z,4.20
2022-12-20T17:25:42.106Z,4.71
2022-12-20T17:30:46.717Z,4.61
2022-12-20T17:35:52.955Z,4.50
2022-12-20T17:41:41.247Z,4.13
2022-12-20T17:47:06.824Z,3.84
2022-12-20T17:52:28.759Z,4.03
2022-12-20T17:58:08.566Z,3.47
2022-12-20T18:03:53.522Z,3.28
2022-12-20T18:08:49.768Z,3.57
2022-12-20T18:13:57.617Z,3.52
2022-12-20T18:19:05.424Z,4.10
2022-12-20T18:24:15.415Z,3.52
2022-12-20T18:29:22.643Z,3.45
2022-12-20T18:34:27.268Z,3.79
2022-12-20T18:39:33.324Z,3.77
2022-12-20T18:44:37.883Z,3.79
2022-12-20T18:49:42.246Z,4.05
2022-12-20T18:54:48.175Z,4.43
2022-12-20T18:59:52.639Z,3.85
2022-12-20T19:04:57.054Z,4.09
2022-12-20T19:10:02.816Z,4.02
2022-12-20T19:15:07.500Z,3.74
2022-12-20T19:26:07.969Z,3.87
2022-12-20T19:31:26.436Z,3.15
2022-12-20T19:36:42.223Z,3.21
2022-12-20T19:42:23.653Z,3.54
2022-12-20T19:55:53.831Z,3.45
2022-12-20T20:01:00.415Z,2.93
2022-12-20T20:06:15.996Z,3.51
2022-12-20T20:17:23.129Z,3.73
2022-12-20T20:22:31.761Z,3.66
2022-12-20T20:27:37.997Z,4.11
2022-12-20T20:33:38.414Z,3.40
2022-12-20T20:38:59.809Z,3.68
2022-12-20T20:44:07.240Z,3.69
2022-12-20T20:49:17.064Z,3.67
2022-12-20T20:54:23.211Z,3.97
2022-12-20T20:59:30.437Z,3.95
2022-12-20T21:04:37.933Z,3.48
2022-12-20T21:09:46.858Z,3.98
2022-12-20T21:15:21.174Z,3.29
2022-12-20T21:20:25.438Z,3.23
2022-12-20T21:25:35.899Z,3.43
2022-12-20T21:30:40.541Z,4.17
2022-12-20T21:35:51.685Z,3.60
2022-12-20T21:41:04.306Z,3.57
2022-12-20T21:46:11.746Z,3.89
2022-12-20T21:51:19.461Z,4.22
2022-12-20T21:56:28.081Z,3.80
2022-12-20T22:01:35.280Z,4.22
2022-12-20T22:06:40.087Z,3.72
2022-12-20T22:11:48.620Z,3.74
2022-12-20T22:16:54.834Z,3.65
2022-12-20T22:22:00.805Z,4.13
2022-12-20T22:27:11.280Z,3.76
2022-12-20T22:32:18.277Z,3.54
2022-12-20T22:37:22.970Z,3.28
2022-12-20T22:42:29.047Z,3.65
2022-12-20T22:47:33.658Z,3.55
2022-12-20T22:52:38.097Z,4.07
2022-12-20T22:57:44.196Z,3.90
2022-12-20T23:02:48.830Z,3.74
2022-12-20T23:07:53.553Z,3.64
2022-12-20T23:13:24.927Z,3.62
2022-12-20T23:18:29.411Z,3.68
2022-12-20T23:23:33.921Z,3.72
2022-12-20T23:28:39.981Z,4.20
2022-12-20T23:33:44.939Z,3.92
2022-12-20T23:38:49.417Z,3.79
2022-12-20T23:43:55.275Z,3.80
2022-12-20T23:48:59.727Z,3.60
2022-12-20T23:54:06.609Z,2.80
2022-12-20T23:59:12.200Z,3.04
